sensor_id;sensor_type;location;lat;lon;timestamp;pressure;altitude;pressure_sealevel;temperature;humidity
69667;BME280;66534;52.370;4.832;2023-04-20T00:00:01;102510.69;;;8.75;98.49
69667;BME280;66534;52.370;4.832;2023-04-20T00:00:40;102514.19;;;8.72;98.56
69667;BME280;66534;52.370;4.832;2023-04-20T00:01:11;102502.03;;;8.69;98.45
69667;BME280;66534;52.370;4.832;2023-04-20T00:01:41;102511.59;;;8.69;100.00
69667;BME280;66534;52.370;4.832;2023-04-20T00:02:12;102509.84;;;8.71;100.00
69667;BME280;66534;52.370;4.832;2023-04-20T00:02:44;102510.72;;;8.68;100.00
69667;BME280;66534;52.370;4.832;2023-04-20T00:03:14;102502.88;;;8.70;100.00
69667;BME280;66534;52.370;4.832;2023-04-20T00:03:50;102504.44;;;8.88;100.00
69667;BME280;66534;52.370;4.832;2023-04-20T00:04:20;102502.72;;;8.87;100.00
69667;BME280;66534;52.370;4.832;2023-04-20T00:04:51;102503.72;;;8.72;100.00
69667;BME280;66534;52.370;4.832;2023-04-20T00:05:22;102502.00;;;8.68;100.00
69667;BME280;66534;52.370;4.832;2023-04-20T00:05:52;102500.34;;;8.61;100.00
69667;BME280;66534;52.370;4.832;2023-04-20T00:06:24;102496.84;;;8.62;100.00
69667;BME280;66534;52.370;4.832;2023-04-20T00:06:58;102497.75;;;8.59;100.00
69667;BME280;66534;52.370;4.832;2023-04-20T00:07:28;102502.06;;;8.63;100.00
69667;BME280;66534;52.370;4.832;2023-04-20T00:08:00;102504.72;;;8.62;100.00
69667;BME280;66534;52.370;4.832;2023-04-20T00:08:31;102496.88;;;8.59;100.00
69667;BME280;66534;52.370;4.832;2023-04-20T00:09:01;102496.84;;;8.60;100.00
69667;BME280;66534;52.370;4.832;2023-04-20T00:09:33;102494.22;;;8.63;100.00
69667;BME280;66534;52.370;4.832;2023-04-20T00:10:04;102495.09;;;8.62;100.00
69667;BME280;66534;52.370;4.832;2023-04-20T00:10:35;102502.09;;;8.59;100.00
69667;BME280;66534;52.370;4.832;2023-04-20T00:11:05;102493.41;;;8.57;100.00
69667;BME280;66534;52.370;4.832;2023-04-20T00:11:35;102489.00;;;8.60;100.00
69667;BME280;66534;52.370;4.832;2023-04-20T00:12:06;102489.03;;;8.59;100.00
69667;BME280;66534;52.370;4.832;2023-04-20T00:12:36;102491.63;;;8.60;100.00
69667;BME280;66534;52.370;4.832;2023-04-20T00:13:06;102486.41;;;8.62;100.00
69667;BME280;66534;52.370;4.832;2023-04-20T00:13:37;102487.25;;;8.61;100.00
69667;BME280;66534;52.370;4.832;2023-04-20T00:14:07;102487.25;;;8.61;100.00
69667;BME280;66534;52.370;4.832;2023-04-20T00:14:38;102482.91;;;8.61;100.00
69667;BME280;66534;52.370;4.832;2023-04-20T00:15:08;102482.91;;;8.61;100.00
69667;BME280;66534;52.370;4.832;2023-04-20T00:15:39;102482.81;;;8.69;100.00
69667;BME280;66534;52.370;4.832;2023-04-20T00:16:09;102486.28;;;8.71;100.00
69667;BME280;66534;52.370;4.832;2023-04-20T00:16:40;102490.72;;;8.64;100.00
69667;BME280;66534;52.370;4.832;2023-04-20T00:17:11;102484.66;;;8.59;100.00
69667;BME280;66534;52.370;4.832;2023-04-20T00:17:41;102479.50;;;8.53;100.00
69667;BME280;66534;52.370;4.832;2023-04-20T00:18:12;102483.00;;;8.51;100.00
69667;BME280;66534;52.370;4.832;2023-04-20T00:18:44;102485.63;;;8.47;100.00
69667;BME280;66534;52.370;4.832;2023-04-20T00:19:15;102483.03;;;8.47;100.00
69667;BME280;66534;52.370;4.832;2023-04-20T00:19:46;102486.50;;;8.50;100.00
69667;BME280;66534;52.370;4.832;2023-04-20T00:20:16;102483.00;;;8.51;100.00
69667;BME280;66534;52.370;4.832;2023-04-20T00:20:48;102483.94;;;8.43;100.00
69667;BME280;66534;52.370;4.832;2023-04-20T00:21:18;102490.94;;;8.40;100.00
69667;BME280;66534;52.370;4.832;2023-04-20T00:21:53;102484.72;;;8.55;100.00
69667;BME280;66534;52.370;4.832;2023-04-20T00:22:23;102486.47;;;8.51;100.00
69667;BME280;66534;52.370;4.832;2023-04-20T00:22:55;102482.13;;;8.53;100.00
69667;BME280;66534;52.370;4.832;2023-04-20T00:23:25;102486.47;;;8.53;100.00
69667;BME280;66534;52.370;4.832;2023-04-20T00:23:55;102480.38;;;8.52;100.00
69667;BME280;66534;52.370;4.832;2023-04-20T00:24:26;102483.00;;;8.51;100.00
69667;BME280;66534;52.370;4.832;2023-04-20T00:24:56;102476.91;;;8.50;100.00
69667;BME280;66534;52.370;4.832;2023-04-20T00:25:26;102479.50;;;8.52;100.00
69667;BME280;66534;52.370;4.832;2023-04-20T00:25:58;102478.63;;;8.53;100.00
69667;BME280;66534;52.370;4.832;2023-04-20T00:26:29;102477.75;;;8.54;100.00
69667;BME280;66534;52.370;4.832;2023-04-20T00:26:59;102476.03;;;8.51;100.00
69667;BME280;66534;52.370;4.832;2023-04-20T00:27:29;102477.78;;;8.51;100.00
69667;BME280;66534;52.370;4.832;2023-04-20T00:28:00;102476.88;;;8.52;100.00
69667;BME280;66534;52.370;4.832;2023-04-20T00:28:30;102475.06;;;8.61;100.00
69667;BME280;66534;52.370;4.832;2023-04-20T00:29:00;102475.09;;;8.55;100.00
69667;BME280;66534;52.370;4.832;2023-04-20T00:29:31;102476.06;;;8.46;100.00
69667;BME280;66534;52.370;4.832;2023-04-20T00:30:02;102471.78;;;8.39;100.00
69667;BME280;66534;52.370;4.832;2023-04-20T00:30:32;102476.94;;;8.44;100.00
69667;BME280;66534;52.370;4.832;2023-04-20T00:31:03;102475.13;;;8.52;100.00
69667;BME280;66534;52.370;4.832;2023-04-20T00:31:34;102469.09;;;8.48;100.00
69667;BME280;66534;52.370;4.832;2023-04-20T00:32:05;102462.84;;;8.60;100.00
69667;BME280;66534;52.370;4.832;2023-04-20T00:32:35;102471.66;;;8.53;100.00
69667;BME280;66534;52.370;4.832;2023-04-20T00:33:05;102467.28;;;8.52;100.00
69667;BME280;66534;52.370;4.832;2023-04-20T00:33:36;102471.56;;;8.61;100.00
69667;BME280;66534;52.370;4.832;2023-04-20T00:34:06;102463.78;;;8.55;100.00
69667;BME280;66534;52.370;4.832;2023-04-20T00:34:37;102464.53;;;8.64;100.00
69667;BME280;66534;52.370;4.832;2023-04-20T00:35:07;102464.44;;;8.75;100.00
69667;BME280;66534;52.370;4.832;2023-04-20T00:35:38;102462.63;;;8.80;100.00
69667;BME280;66534;52.370;4.832;2023-04-20T00:36:08;102453.75;;;8.95;100.00
69667;BME280;66534;52.370;4.832;2023-04-20T00:36:39;102459.13;;;8.81;100.00
69667;BME280;66534;52.370;4.832;2023-04-20T00:37:09;102469.81;;;8.63;100.00
69667;BME280;66534;52.370;4.832;2023-04-20T00:37:40;102465.53;;;8.57;100.00
69667;BME280;66534;52.370;4.832;2023-04-20T00:38:11;102466.41;;;8.55;100.00
69667;BME280;66534;52.370;4.832;2023-04-20T00:38:41;102456.84;;;8.54;100.00
69667;BME280;66534;52.370;4.832;2023-04-20T00:39:11;102465.59;;;8.46;100.00
69667;BME280;66534;52.370;4.832;2023-04-20T00:39:42;102462.91;;;8.53;100.00
69667;BME280;66534;52.370;4.832;2023-04-20T00:40:12;102462.09;;;8.51;100.00
69667;BME280;66534;52.370;4.832;2023-04-20T00:40:42;102462.13;;;8.46;100.00
69667;BME280;66534;52.370;4.832;2023-04-20T00:41:13;102441.28;;;8.38;100.00
69667;BME280;66534;52.370;4.832;2023-04-20T00:41:44;102458.72;;;8.38;100.00
69667;BME280;66534;52.370;4.832;2023-04-20T00:42:14;102455.16;;;8.46;100.00
69667;BME280;66534;52.370;4.832;2023-04-20T00:42:45;102452.56;;;8.45;100.00
69667;BME280;66534;52.370;4.832;2023-04-20T00:43:15;102459.38;;;8.61;100.00
69667;BME280;66534;52.370;4.832;2023-04-20T00:43:52;102460.34;;;8.50;100.00
69667;BME280;66534;52.370;4.832;2023-04-20T00:44:23;102462.19;;;8.38;100.00
69667;BME280;66534;52.370;4.832;2023-04-20T00:44:53;102459.56;;;8.40;100.00
69667;BME280;66534;52.370;4.832;2023-04-20T00:45:24;102457.78;;;8.43;100.00
69667;BME280;66534;52.370;4.832;2023-04-20T00:45:54;102457.84;;;8.34;100.00
69667;BME280;66534;52.370;4.832;2023-04-20T00:46:25;102449.19;;;8.26;100.00
69667;BME280;66534;52.370;4.832;2023-04-20T00:46:55;102449.13;;;8.34;100.00
69667;BME280;66534;52.370;4.832;2023-04-20T00:47:26;102454.31;;;8.40;100.00
69667;BME280;66534;52.370;4.832;2023-04-20T00:47:56;102448.22;;;8.42;100.00
69667;BME280;66534;52.370;4.832;2023-04-20T00:48:27;102447.41;;;8.37;100.00
69667;BME280;66534;52.370;4.832;2023-04-20T00:48:57;102454.22;;;8.52;100.00
69667;BME280;66534;52.370;4.832;2023-04-20T00:49:28;102441.97;;;8.57;100.00
69667;BME280;66534;52.370;4.832;2023-04-20T00:49:59;102442.72;;;8.67;100.00
69667;BME280;66534;52.370;4.832;2023-04-20T00:50:30;102446.19;;;8.70;100.00
69667;BME280;66534;52.370;4.832;2023-04-20T00:51:02;102441.94;;;8.62;100.00
69667;BME280;66534;52.370;4.832;2023-04-20T00:51:33;102449.84;;;8.53;100.00
69667;BME280;66534;52.370;4.832;2023-04-20T00:52:04;102448.22;;;8.42;100.00
69667;BME280;66534;52.370;4.832;2023-04-20T00:52:35;102443.03;;;8.33;100.00
69667;BME280;66534;52.370;4.832;2023-04-20T00:53:06;102447.41;;;8.31;100.00
69667;BME280;66534;52.370;4.832;2023-04-20T00:53:37;102443.91;;;8.34;100.00
69667;BME280;66534;52.370;4.832;2023-04-20T00:54:07;102441.22;;;8.43;100.00
69667;BME280;66534;52.370;4.832;2023-04-20T00:54:38;102443.91;;;8.38;100.00
69667;BME280;66534;52.370;4.832;2023-04-20T00:55:08;102444.75;;;8.36;100.00
69667;BME280;66534;52.370;4.832;2023-04-20T00:55:40;102439.47;;;8.43;100.00
69667;BME280;66534;52.370;4.832;2023-04-20T00:56:13;102433.28;;;8.54;100.00
69667;BME280;66534;52.370;4.832;2023-04-20T00:56:44;102435.94;;;8.47;100.00
69667;BME280;66534;52.370;4.832;2023-04-20T00:57:14;102438.66;;;8.38;100.00
69667;BME280;66534;52.370;4.832;2023-04-20T00:57:48;102426.38;;;8.46;100.00
69667;BME280;66534;52.370;4.832;2023-04-20T00:58:19;102425.47;;;8.51;100.00
69667;BME280;66534;52.370;4.832;2023-04-20T00:58:50;102432.38;;;8.58;100.00
69667;BME280;66534;52.370;4.832;2023-04-20T00:59:21;102432.53;;;8.42;100.00
69667;BME280;66534;52.370;4.832;2023-04-20T00:59:51;102429.84;;;8.47;100.00
69667;BME280;66534;52.370;4.832;2023-04-20T01:00:21;102426.16;;;8.65;100.00
69667;BME280;66534;52.370;4.832;2023-04-20T01:00:52;102434.13;;;8.57;100.00
69667;BME280;66534;52.370;4.832;2023-04-20T01:01:22;102425.47;;;8.51;100.00
69667;BME280;66534;52.370;4.832;2023-04-20T01:01:53;102428.09;;;8.47;100.00
69667;BME280;66534;52.370;4.832;2023-04-20T01:02:24;102424.44;;;8.65;100.00
69667;BME280;66534;52.370;4.832;2023-04-20T01:02:55;102422.63;;;8.70;100.00
69667;BME280;66534;52.370;4.832;2023-04-20T01:03:26;102427.97;;;8.60;100.00
69667;BME280;66534;52.370;4.832;2023-04-20T01:03:56;102424.47;;;8.62;100.00
69667;BME280;66534;52.370;4.832;2023-04-20T01:04:27;102420.94;;;8.65;100.00
69667;BME280;66534;52.370;4.832;2023-04-20T01:04:58;102421.72;;;8.73;100.00
69667;BME280;66534;52.370;4.832;2023-04-20T01:05:28;102418.25;;;8.72;100.00
69667;BME280;66534;52.370;4.832;2023-04-20T01:05:59;102423.53;;;8.69;100.00
69667;BME280;66534;52.370;4.832;2023-04-20T01:06:30;102421.78;;;8.68;100.00
69667;BME280;66534;52.370;4.832;2023-04-20T01:07:01;102418.19;;;8.77;100.00
69667;BME280;66534;52.370;4.832;2023-04-20T01:07:32;102418.31;;;8.65;100.00
69667;BME280;66534;52.370;4.832;2023-04-20T01:08:03;102419.25;;;8.61;100.00
69667;BME280;66534;52.370;4.832;2023-04-20T01:08:33;102413.28;;;8.50;100.00
69667;BME280;66534;52.370;4.832;2023-04-20T01:09:04;102417.56;;;8.55;100.00
69667;BME280;66534;52.370;4.832;2023-04-20T01:09:36;102417.59;;;8.54;100.00
69667;BME280;66534;52.370;4.832;2023-04-20T01:10:08;102416.69;;;8.58;100.00
69667;BME280;66534;52.370;4.832;2023-04-20T01:10:39;102416.00;;;8.39;100.00
69667;BME280;66534;52.370;4.832;2023-04-20T01:11:10;102422.09;;;8.35;100.00
69667;BME280;66534;52.370;4.832;2023-04-20T01:11:40;102424.84;;;8.24;100.00
69667;BME280;66534;52.370;4.832;2023-04-20T01:12:10;102419.63;;;8.24;100.00
69667;BME280;66534;52.370;4.832;2023-04-20T01:12:41;102425.66;;;8.29;100.00
69667;BME280;66534;52.370;4.832;2023-04-20T01:13:11;102421.31;;;8.28;100.00
69667;BME280;66534;52.370;4.832;2023-04-20T01:13:42;102411.69;;;8.30;100.00
69667;BME280;66534;52.370;4.832;2023-04-20T01:14:12;102422.28;;;8.19;100.00
69667;BME280;66534;52.370;4.832;2023-04-20T01:14:43;102417.00;;;8.21;100.00
69667;BME280;66534;52.370;4.832;2023-04-20T01:15:13;102417.03;;;8.19;100.00
69667;BME280;66534;52.370;4.832;2023-04-20T01:15:44;102414.41;;;8.21;100.00
69667;BME280;66534;52.370;4.832;2023-04-20T01:16:14;102412.66;;;8.18;100.00
69667;BME280;66534;52.370;4.832;2023-04-20T01:16:45;102403.97;;;8.19;100.00
69667;BME280;66534;52.370;4.832;2023-04-20T01:17:16;102408.34;;;8.16;100.00
69667;BME280;66534;52.370;4.832;2023-04-20T01:17:46;102399.50;;;8.32;100.00
69667;BME280;66534;52.370;4.832;2023-04-20T01:18:18;102402.94;;;8.34;100.00
69667;BME280;66534;52.370;4.832;2023-04-20T01:18:49;102406.50;;;8.26;100.00
69667;BME280;66534;52.370;4.832;2023-04-20T01:19:20;102403.91;;;8.22;100.00
69667;BME280;66534;52.370;4.832;2023-04-20T01:19:50;102401.34;;;8.21;100.00
69667;BME280;66534;52.370;4.832;2023-04-20T01:20:21;102404.91;;;8.12;100.00
69667;BME280;66534;52.370;4.832;2023-04-20T01:20:52;102396.16;;;8.13;100.00
69667;BME280;66534;52.370;4.832;2023-04-20T01:21:23;102401.50;;;8.04;100.00
69667;BME280;66534;52.370;4.832;2023-04-20T01:21:53;102402.28;;;8.15;100.00
69667;BME280;66534;52.370;4.832;2023-04-20T01:22:23;102395.31;;;8.13;100.00
69667;BME280;66534;52.370;4.832;2023-04-20T01:22:54;102397.03;;;8.14;100.00
69667;BME280;66534;52.370;4.832;2023-04-20T01:23:25;102387.22;;;8.42;100.00
69667;BME280;66534;52.370;4.832;2023-04-20T01:23:55;102395.09;;;8.37;100.00
69667;BME280;66534;52.370;4.832;2023-04-20T01:24:26;102390.72;;;8.38;100.00
69667;BME280;66534;52.370;4.832;2023-04-20T01:24:56;102397.75;;;8.30;100.00
69667;BME280;66534;52.370;4.832;2023-04-20T01:25:27;102387.31;;;8.27;100.00
69667;BME280;66534;52.370;4.832;2023-04-20T01:25:57;102394.47;;;8.09;100.00
69667;BME280;66534;52.370;4.832;2023-04-20T01:26:27;102392.75;;;8.05;100.00
69667;BME280;66534;52.370;4.832;2023-04-20T01:26:58;102390.16;;;8.02;100.00
69667;BME280;66534;52.370;4.832;2023-04-20T01:27:29;102385.69;;;8.15;100.00
69667;BME280;66534;52.370;4.832;2023-04-20T01:27:59;102385.59;;;8.26;100.00
69667;BME280;66534;52.370;4.832;2023-04-20T01:28:31;102389.19;;;8.15;100.00
69667;BME280;66534;52.370;4.832;2023-04-20T01:29:01;102388.28;;;8.19;100.00
69667;BME280;66534;52.370;4.832;2023-04-20T01:29:31;102382.09;;;8.27;100.00
69667;BME280;66534;52.370;4.832;2023-04-20T01:30:02;102382.03;;;8.33;100.00
69667;BME280;66534;52.370;4.832;2023-04-20T01:30:33;102381.22;;;8.29;100.00
69667;BME280;66534;52.370;4.832;2023-04-20T01:31:04;102382.09;;;8.28;100.00
69667;BME280;66534;52.370;4.832;2023-04-20T01:31:36;102382.91;;;8.33;100.00
69667;BME280;66534;52.370;4.832;2023-04-20T01:32:06;102380.25;;;8.39;100.00
69667;BME280;66534;52.370;4.832;2023-04-20T01:32:37;102376.75;;;8.42;100.00
69667;BME280;66534;52.370;4.832;2023-04-20T01:33:08;102372.56;;;8.21;100.00
69667;BME280;66534;52.370;4.832;2023-04-20T01:33:38;102379.63;;;8.13;100.00
69667;BME280;66534;52.370;4.832;2023-04-20T01:34:09;102376.13;;;8.14;100.00
69667;BME280;66534;52.370;4.832;2023-04-20T01:34:40;102378.00;;;8.01;100.00
69667;BME280;66534;52.370;4.832;2023-04-20T01:35:10;102376.16;;;8.09;100.00
69667;BME280;66534;52.370;4.832;2023-04-20T01:35:41;102380.56;;;8.07;100.00
69667;BME280;66534;52.370;4.832;2023-04-20T01:36:12;102382.31;;;8.05;100.00
69667;BME280;66534;52.370;4.832;2023-04-20T01:36:43;102377.16;;;7.99;100.00
69667;BME280;66534;52.370;4.832;2023-04-20T01:37:14;102381.47;;;8.02;100.00
69667;BME280;66534;52.370;4.832;2023-04-20T01:37:45;102378.84;;;8.05;100.00
69667;BME280;66534;52.370;4.832;2023-04-20T01:38:18;102373.63;;;8.03;100.00
69667;BME280;66534;52.370;4.832;2023-04-20T01:38:49;102372.59;;;8.18;100.00
69667;BME280;66534;52.370;4.832;2023-04-20T01:39:20;102372.50;;;8.27;100.00
69667;BME280;66534;52.370;4.832;2023-04-20T01:39:50;102372.69;;;8.12;100.00
69667;BME280;66534;52.370;4.832;2023-04-20T01:40:21;102378.75;;;8.11;100.00
69667;BME280;66534;52.370;4.832;2023-04-20T01:40:52;102371.03;;;8.00;100.00
69667;BME280;66534;52.370;4.832;2023-04-20T01:41:23;102375.38;;;8.01;100.00
69667;BME280;66534;52.370;4.832;2023-04-20T01:41:54;102374.69;;;7.81;100.00
69667;BME280;66534;52.370;4.832;2023-04-20T01:42:25;102376.50;;;7.72;100.00
69667;BME280;66534;52.370;4.832;2023-04-20T01:42:55;102369.53;;;7.71;100.00
69667;BME280;66534;52.370;4.832;2023-04-20T01:43:26;102367.81;;;7.69;100.00
69667;BME280;66534;52.370;4.832;2023-04-20T01:43:57;102364.34;;;7.68;100.00
69667;BME280;66534;52.370;4.832;2023-04-20T01:44:27;102373.91;;;7.68;100.00
69667;BME280;66534;52.370;4.832;2023-04-20T01:44:57;102366.16;;;7.62;100.00
69667;BME280;66534;52.370;4.832;2023-04-20T01:45:28;102367.84;;;7.67;100.00
69667;BME280;66534;52.370;4.832;2023-04-20T01:45:58;102369.56;;;7.68;100.00
69667;BME280;66534;52.370;4.832;2023-04-20T01:46:30;102362.59;;;7.70;100.00
69667;BME280;66534;52.370;4.832;2023-04-20T01:47:00;102367.75;;;7.77;100.00
69667;BME280;66534;52.370;4.832;2023-04-20T01:47:30;102359.88;;;7.81;100.00
69667;BME280;66534;52.370;4.832;2023-04-20T01:48:01;102360.75;;;7.82;100.00
69667;BME280;66534;52.370;4.832;2023-04-20T01:48:32;102365.94;;;7.85;100.00
69667;BME280;66534;52.370;4.832;2023-04-20T01:49:03;102364.09;;;7.97;100.00
69667;BME280;66534;52.370;4.832;2023-04-20T01:49:33;102363.38;;;7.82;100.00
69667;BME280;66534;52.370;4.832;2023-04-20T01:50:03;102364.19;;;7.87;100.00
69667;BME280;66534;52.370;4.832;2023-04-20T01:50:34;102363.41;;;7.79;100.00
69667;BME280;66534;52.370;4.832;2023-04-20T01:51:05;102366.13;;;7.63;100.00
69667;BME280;66534;52.370;4.832;2023-04-20T01:51:37;102357.44;;;7.63;100.00
69667;BME280;66534;52.370;4.832;2023-04-20T01:52:08;102367.84;;;7.67;100.00
69667;BME280;66534;52.370;4.832;2023-04-20T01:52:38;102362.53;;;7.78;100.00
69667;BME280;66534;52.370;4.832;2023-04-20T01:53:09;102359.88;;;7.81;100.00
69667;BME280;66534;52.370;4.832;2023-04-20T01:53:39;102360.78;;;7.79;100.00
69667;BME280;66534;52.370;4.832;2023-04-20T01:54:10;102365.16;;;7.75;100.00
69667;BME280;66534;52.370;4.832;2023-04-20T01:54:40;102360.78;;;7.79;100.00
69667;BME280;66534;52.370;4.832;2023-04-20T01:55:10;102359.19;;;7.59;100.00
69667;BME280;66534;52.370;4.832;2023-04-20T01:55:41;102356.56;;;7.59;100.00
69667;BME280;66534;52.370;4.832;2023-04-20T01:56:11;102362.69;;;7.55;100.00
69667;BME280;66534;52.370;4.832;2023-04-20T01:56:41;102352.28;;;7.52;100.00
69667;BME280;66534;52.370;4.832;2023-04-20T01:57:12;102360.09;;;7.52;100.00
69667;BME280;66534;52.370;4.832;2023-04-20T01:57:42;102356.72;;;7.42;100.00
69667;BME280;66534;52.370;4.832;2023-04-20T01:58:13;102354.03;;;7.53;100.00
69667;BME280;66534;52.370;4.832;2023-04-20T01:58:44;102358.34;;;7.57;100.00
69667;BME280;66534;52.370;4.832;2023-04-20T01:59:14;102354.06;;;7.44;100.00
69667;BME280;66534;52.370;4.832;2023-04-20T01:59:45;102354.06;;;7.44;100.00
69667;BME280;66534;52.370;4.832;2023-04-20T02:00:15;102356.66;;;7.47;100.00
69667;BME280;66534;52.370;4.832;2023-04-20T02:00:46;102361.88;;;7.53;100.00
69667;BME280;66534;52.370;4.832;2023-04-20T02:01:16;102351.44;;;7.50;100.00
69667;BME280;66534;52.370;4.832;2023-04-20T02:01:46;102356.69;;;7.44;100.00
69667;BME280;66534;52.370;4.832;2023-04-20T02:02:17;102347.09;;;7.47;100.00
69667;BME280;66534;52.370;4.832;2023-04-20T02:02:47;102348.00;;;7.45;100.00
69667;BME280;66534;52.370;4.832;2023-04-20T02:03:17;102358.38;;;7.54;100.00
69667;BME280;66534;52.370;4.832;2023-04-20T02:03:48;102355.78;;;7.48;100.00
69667;BME280;66534;52.370;4.832;2023-04-20T02:04:19;102357.50;;;7.51;100.00
69667;BME280;66534;52.370;4.832;2023-04-20T02:04:50;102354.91;;;7.47;100.00
69667;BME280;66534;52.370;4.832;2023-04-20T02:05:22;102354.88;;;7.55;100.00
69667;BME280;66534;52.370;4.832;2023-04-20T02:05:52;102352.31;;;7.47;100.00
69667;BME280;66534;52.370;4.832;2023-04-20T02:06:23;102353.22;;;7.42;100.00
69667;BME280;66534;52.370;4.832;2023-04-20T02:06:53;102348.91;;;7.41;100.00
69667;BME280;66534;52.370;4.832;2023-04-20T02:07:24;102350.63;;;7.39;100.00
69667;BME280;66534;52.370;4.832;2023-04-20T02:07:54;102350.59;;;7.46;100.00
69667;BME280;66534;52.370;4.832;2023-04-20T02:08:25;102349.75;;;7.44;100.00
69667;BME280;66534;52.370;4.832;2023-04-20T02:08:55;102348.97;;;7.32;100.00
69667;BME280;66534;52.370;4.832;2023-04-20T02:09:25;102341.13;;;7.32;100.00
69667;BME280;66534;52.370;4.832;2023-04-20T02:09:56;102348.97;;;7.32;100.00
69667;BME280;66534;52.370;4.832;2023-04-20T02:10:26;102342.75;;;7.43;100.00
69667;BME280;66534;52.370;4.832;2023-04-20T02:10:56;102342.69;;;7.54;100.00
69667;BME280;66534;52.370;4.832;2023-04-20T02:11:27;102338.34;;;7.52;100.00
69667;BME280;66534;52.370;4.832;2023-04-20T02:11:57;102334.94;;;7.45;100.00
69667;BME280;66534;52.370;4.832;2023-04-20T02:12:27;102334.97;;;7.40;100.00
69667;BME280;66534;52.370;4.832;2023-04-20T02:12:58;102334.94;;;7.45;100.00
69667;BME280;66534;52.370;4.832;2023-04-20T02:13:28;102344.56;;;7.40;100.00
69667;BME280;66534;52.370;4.832;2023-04-20T02:13:59;102330.66;;;7.35;100.00
69667;BME280;66534;52.370;4.832;2023-04-20T02:14:29;102329.81;;;7.30;100.00
69667;BME280;66534;52.370;4.832;2023-04-20T02:14:59;102331.56;;;7.29;100.00
69667;BME280;66534;52.370;4.832;2023-04-20T02:15:30;102325.41;;;7.38;100.00
69667;BME280;66534;52.370;4.832;2023-04-20T02:16:00;102333.19;;;7.44;100.00
69667;BME280;66534;52.370;4.832;2023-04-20T02:16:31;102328.00;;;7.41;100.00
69667;BME280;66534;52.370;4.832;2023-04-20T02:17:01;102325.28;;;7.52;100.00
69667;BME280;66534;52.370;4.832;2023-04-20T02:17:31;102332.31;;;7.46;100.00
69667;BME280;66534;52.370;4.832;2023-04-20T02:18:02;102327.09;;;7.43;100.00
69667;BME280;66534;52.370;4.832;2023-04-20T02:18:32;102327.16;;;7.37;100.00
69667;BME280;66534;52.370;4.832;2023-04-20T02:19:03;102321.09;;;7.34;100.00
69667;BME280;66534;52.370;4.832;2023-04-20T02:19:33;102328.03;;;7.35;100.00
69667;BME280;66534;52.370;4.832;2023-04-20T02:20:04;102321.00;;;7.43;100.00
69667;BME280;66534;52.370;4.832;2023-04-20T02:20:38;102318.44;;;7.40;100.00
69667;BME280;66534;52.370;4.832;2023-04-20T02:21:08;102321.94;;;7.37;100.00
69667;BME280;66534;52.370;4.832;2023-04-20T02:21:39;102323.69;;;7.35;100.00
69667;BME280;66534;52.370;4.832;2023-04-20T02:22:10;102328.06;;;7.33;100.00
69667;BME280;66534;52.370;4.832;2023-04-20T02:22:40;102323.72;;;7.32;100.00
69667;BME280;66534;52.370;4.832;2023-04-20T02:23:11;102321.06;;;7.38;100.00
69667;BME280;66534;52.370;4.832;2023-04-20T02:23:41;102317.56;;;7.39;100.00
69667;BME280;66534;52.370;4.832;2023-04-20T02:24:11;102323.66;;;7.38;100.00
69667;BME280;66534;52.370;4.832;2023-04-20T02:24:42;102315.88;;;7.34;100.00
69667;BME280;66534;52.370;4.832;2023-04-20T02:25:13;102314.13;;;7.31;100.00
69667;BME280;66534;52.370;4.832;2023-04-20T02:25:44;102319.34;;;7.31;100.00
69667;BME280;66534;52.370;4.832;2023-04-20T02:26:14;102321.06;;;7.35;100.00
69667;BME280;66534;52.370;4.832;2023-04-20T02:26:45;102315.78;;;7.46;100.00
69667;BME280;66534;52.370;4.832;2023-04-20T02:27:16;102319.22;;;7.48;100.00
69667;BME280;66534;52.370;4.832;2023-04-20T02:27:46;102315.84;;;7.35;100.00
69667;BME280;66534;52.370;4.832;2023-04-20T02:28:17;102313.22;;;7.41;100.00
69667;BME280;66534;52.370;4.832;2023-04-20T02:28:47;102315.78;;;7.43;100.00
69667;BME280;66534;52.370;4.832;2023-04-20T02:29:17;102315.78;;;7.46;100.00
69667;BME280;66534;52.370;4.832;2023-04-20T02:29:48;102314.91;;;7.44;100.00
69667;BME280;66534;52.370;4.832;2023-04-20T02:30:18;102310.63;;;7.40;100.00
69667;BME280;66534;52.370;4.832;2023-04-20T02:30:48;102319.31;;;7.40;100.00
69667;BME280;66534;52.370;4.832;2023-04-20T02:31:19;102313.16;;;7.46;100.00
69667;BME280;66534;52.370;4.832;2023-04-20T02:31:50;102314.00;;;7.49;100.00
69667;BME280;66534;52.370;4.832;2023-04-20T02:32:20;102317.47;;;7.52;100.00
69667;BME280;66534;52.370;4.832;2023-04-20T02:32:50;102315.72;;;7.57;100.00
69667;BME280;66534;52.370;4.832;2023-04-20T02:33:21;102323.56;;;7.51;100.00
69667;BME280;66534;52.370;4.832;2023-04-20T02:33:52;102317.53;;;7.44;100.00
69667;BME280;66534;52.370;4.832;2023-04-20T02:34:23;102315.81;;;7.44;100.00
69667;BME280;66534;52.370;4.832;2023-04-20T02:34:53;102315.78;;;7.43;100.00
69667;BME280;66534;52.370;4.832;2023-04-20T02:35:23;102313.16;;;7.47;100.00
69667;BME280;66534;52.370;4.832;2023-04-20T02:35:55;102306.91;;;7.67;100.00
69667;BME280;66534;52.370;4.832;2023-04-20T02:36:25;102319.94;;;7.70;100.00
69667;BME280;66534;52.370;4.832;2023-04-20T02:36:56;102306.06;;;7.62;100.00
69667;BME280;66534;52.370;4.832;2023-04-20T02:37:26;102309.59;;;7.56;100.00
69667;BME280;66534;52.370;4.832;2023-04-20T02:37:56;102305.28;;;7.54;100.00
69667;BME280;66534;52.370;4.832;2023-04-20T02:38:27;102307.88;;;7.57;100.00
69667;BME280;66534;52.370;4.832;2023-04-20T02:38:57;102306.97;;;7.59;100.00
69667;BME280;66534;52.370;4.832;2023-04-20T02:39:27;102301.75;;;7.56;100.00
69667;BME280;66534;52.370;4.832;2023-04-20T02:39:58;102299.16;;;7.56;100.00
69667;BME280;66534;52.370;4.832;2023-04-20T02:40:28;102297.44;;;7.54;100.00